Time;durP1;ratioP1;P1;durP2;ratioP2;P2;SDS_P1;SDS_P2;PMS_P1;PMS_P2;Temp;Humidity;BMP_temperature;BMP_pressure;BME280_temperature;BME280_humidity;BME280_pressure;Samples;Min_cycle;Max_cycle;Signal;HPM_P1;HPM_P2
2022/08/23 00:00:10;;;;;;;4.33;3.83;;;;;;;;;;5090906;28;20493;-76
2022/08/23 00:02:38;;;;;;;4.30;3.60;;;;;;;;;;5092380;28;20785;-77
2022/08/23 00:05:05;;;;;;;5.07;4.10;;;;;;;;;;5092736;28;20491;-76
2022/08/23 00:07:33;;;;;;;9.27;3.83;;;;;;;;;;5092930;28;20546;-77
2022/08/23 00:10:00;;;;;;;7.57;4.00;;;;;;;;;;5092879;28;20506;-77
2022/08/23 00:12:27;;;;;;;5.43;4.20;;;;;;;;;;5093714;28;20443;-76
2022/08/23 00:14:55;;;;;;;5.33;3.43;;;;;;;;;;5094719;28;20485;-77
2022/08/23 00:17:24;;;;;;;6.13;4.43;;;;;;;;;;5090901;28;20440;-77
2022/08/23 00:19:51;;;;;;;6.40;3.90;;;;;;;;;;5088289;28;20861;-76
2022/08/23 00:22:18;;;;;;;4.57;3.83;;;;;;;;;;5090936;28;20538;-77
2022/08/23 00:24:45;;;;;;;6.03;3.93;;;;;;;;;;5092070;28;20899;-76
2022/08/23 00:27:13;;;;;;;4.00;3.60;;;;;;;;;;5092272;28;20527;-77
2022/08/23 00:29:42;;;;;;;14.63;4.00;;;;;;;;;;5091344;28;20436;-75
2022/08/23 00:32:10;;;;;;;5.37;4.37;;;;;;;;;;5092448;28;20868;-77
2022/08/23 00:34:39;;;;;;;4.67;3.80;;;;;;;;;;5092048;28;20471;-77
2022/08/23 00:37:06;;;;;;;4.13;3.00;;;;;;;;;;5094253;28;20534;-76
2022/08/23 00:39:34;;;;;;;4.77;3.47;;;;;;;;;;5090536;28;20519;-76
2022/08/23 00:47:38;;;;;;;4.83;3.60;;;;;;;;;;5087544;28;20451;-77
2022/08/23 00:47:40;;;;;;;5.27;3.80;;;;;;;;;;5091363;28;20436;-77
2022/08/23 00:50:14;;;;;;;7.37;4.10;;;;;;;;;;5091927;28;21094;-76
2022/08/23 00:52:45;;;;;;;6.47;3.63;;;;;;;;;;5092226;28;20453;-77
2022/08/23 00:55:12;;;;;;;4.10;3.70;;;;;;;;;;5091776;28;20455;-77
2022/08/23 00:57:39;;;;;;;3.80;3.40;;;;;;;;;;5094760;28;21003;-77
2022/08/23 01:00:08;;;;;;;5.53;3.60;;;;;;;;;;5094149;28;20530;-77
2022/08/23 01:02:36;;;;;;;3.77;3.43;;;;;;;;;;5087999;28;20519;-76
2022/08/23 01:05:06;;;;;;;4.70;3.63;;;;;;;;;;5087320;28;20486;-77
2022/08/23 01:07:42;;;;;;;4.67;4.00;;;;;;;;;;5089967;28;20440;-76
2022/08/23 01:10:12;;;;;;;5.87;4.50;;;;;;;;;;5091450;28;20533;-77
2022/08/23 01:12:42;;;;;;;4.87;4.17;;;;;;;;;;5091811;28;20473;-77
2022/08/23 01:15:12;;;;;;;7.10;4.23;;;;;;;;;;5091791;28;21043;-78
2022/08/23 01:17:40;;;;;;;6.13;4.33;;;;;;;;;;5091533;28;20949;-77
2022/08/23 01:20:11;;;;;;;5.80;4.40;;;;;;;;;;5093779;28;20523;-77
2022/08/23 01:22:42;;;;;;;5.53;4.17;;;;;;;;;;5092669;28;20538;-77
2022/08/23 01:25:13;;;;;;;8.13;4.20;;;;;;;;;;5087099;28;21019;-76
2022/08/23 01:27:40;;;;;;;6.70;4.00;;;;;;;;;;5086908;28;20983;-78
2022/08/23 01:30:10;;;;;;;6.17;4.67;;;;;;;;;;5090661;28;20493;-76
2022/08/23 01:32:41;;;;;;;6.63;4.60;;;;;;;;;;5089857;28;20936;-76
2022/08/23 01:35:09;;;;;;;6.83;4.50;;;;;;;;;;5091544;28;20917;-76
2022/08/23 01:37:36;;;;;;;6.70;4.70;;;;;;;;;;5090741;28;21007;-77
2022/08/23 01:40:04;;;;;;;7.13;5.10;;;;;;;;;;5091485;28;20447;-76
2022/08/23 01:42:32;;;;;;;8.67;5.30;;;;;;;;;;5093759;28;20443;-77
2022/08/23 01:45:00;;;;;;;11.07;4.80;;;;;;;;;;5093480;28;20554;-77
2022/08/23 01:47:28;;;;;;;6.07;4.60;;;;;;;;;;5087276;28;20435;-76
2022/08/23 01:49:55;;;;;;;8.17;5.47;;;;;;;;;;5087979;28;20485;-77
2022/08/23 01:52:26;;;;;;;6.20;4.70;;;;;;;;;;5090542;28;20451;-77
2022/08/23 01:54:54;;;;;;;5.30;4.30;;;;;;;;;;5090909;28;20463;-77
2022/08/23 01:57:21;;;;;;;7.33;5.10;;;;;;;;;;5091169;28;20964;-76
2022/08/23 01:59:50;;;;;;;6.47;4.53;;;;;;;;;;5094792;28;20487;-77
2022/08/23 02:02:18;;;;;;;5.50;4.93;;;;;;;;;;5095204;28;20542;-77
2022/08/23 02:04:45;;;;;;;5.20;4.40;;;;;;;;;;5097259;28;20501;-77
2022/08/23 02:07:13;;;;;;;7.00;4.63;;;;;;;;;;5096969;28;20577;-76
2022/08/23 02:09:40;;;;;;;5.70;4.40;;;;;;;;;;5091032;28;20429;-76
2022/08/23 02:12:07;;;;;;;6.60;4.67;;;;;;;;;;5090917;28;20438;-78
2022/08/23 02:14:36;;;;;;;6.23;4.57;;;;;;;;;;5094478;28;20457;-77
2022/08/23 02:17:04;;;;;;;5.43;4.80;;;;;;;;;;5094781;28;20974;-77
2022/08/23 02:19:32;;;;;;;8.27;6.07;;;;;;;;;;5094862;28;20439;-77
2022/08/23 02:21:59;;;;;;;5.47;4.67;;;;;;;;;;5093938;28;20435;-76
2022/08/23 02:24:27;;;;;;;8.00;5.07;;;;;;;;;;5094262;28;20523;-79
2022/08/23 02:26:56;;;;;;;6.70;5.00;;;;;;;;;;5096849;28;20577;-76
2022/08/23 02:29:23;;;;;;;8.13;4.90;;;;;;;;;;5095712;28;20445;-77
2022/08/23 02:31:51;;;;;;;5.20;4.63;;;;;;;;;;5089429;28;20873;-77
2022/08/23 02:34:19;;;;;;;9.00;5.17;;;;;;;;;;5090286;28;20428;-78
2022/08/23 02:36:47;;;;;;;6.03;4.37;;;;;;;;;;5093708;28;20837;-77
2022/08/23 02:39:15;;;;;;;5.33;4.83;;;;;;;;;;5093066;28;20454;-77
2022/08/23 02:41:42;;;;;;;6.03;4.40;;;;;;;;;;5094605;28;20918;-77
2022/08/23 02:44:10;;;;;;;8.40;4.43;;;;;;;;;;5094960;28;20538;-77
2022/08/23 02:46:37;;;;;;;9.63;4.93;;;;;;;;;;5092752;28;20491;-77
2022/08/23 02:49:05;;;;;;;7.10;5.20;;;;;;;;;;5096121;28;20529;-77
2022/08/23 02:51:33;;;;;;;6.33;4.80;;;;;;;;;;5096187;28;20928;-78
2022/08/23 02:54:01;;;;;;;5.00;4.20;;;;;;;;;;5090727;28;20432;-77
2022/08/23 02:56:28;;;;;;;5.00;4.40;;;;;;;;;;5088656;28;20538;-76
2022/08/23 02:58:55;;;;;;;7.13;4.27;;;;;;;;;;5093327;28;20535;-76
2022/08/23 03:01:24;;;;;;;8.10;4.57;;;;;;;;;;5094024;28;20829;-77
2022/08/23 03:03:51;;;;;;;6.47;4.27;;;;;;;;;;5093881;28;20469;-78
2022/08/23 03:06:18;;;;;;;6.13;4.73;;;;;;;;;;5092957;28;21096;-77
2022/08/23 03:08:47;;;;;;;6.60;4.70;;;;;;;;;;5093578;28;20892;-78
2022/08/23 03:11:15;;;;;;;4.80;4.10;;;;;;;;;;5094906;28;20442;-77
2022/08/23 03:13:44;;;;;;;7.53;4.60;;;;;;;;;;5094930;28;20492;-78
2022/08/23 03:16:12;;;;;;;4.70;4.23;;;;;;;;;;5090299;28;20994;-77
2022/08/23 03:18:40;;;;;;;5.90;4.10;;;;;;;;;;5088422;28;20436;-76
2022/08/23 03:21:08;;;;;;;8.20;4.30;;;;;;;;;;5092492;28;20410;-79
2022/08/23 03:23:36;;;;;;;8.57;5.33;;;;;;;;;;5093310;28;20422;-77
2022/08/23 03:26:06;;;;;;;9.70;5.90;;;;;;;;;;5093778;28;20467;-77
2022/08/23 03:28:34;;;;;;;12.27;6.87;;;;;;;;;;5094115;28;20545;-79
2022/08/23 03:31:02;;;;;;;10.37;5.57;;;;;;;;;;5091510;28;20450;-78
2022/08/23 03:33:29;;;;;;;8.37;5.90;;;;;;;;;;5094484;28;20500;-78
2022/08/23 03:35:59;;;;;;;8.70;6.37;;;;;;;;;;5095061;28;20869;-79
2022/08/23 03:38:26;;;;;;;6.83;5.77;;;;;;;;;;5090911;28;20762;-78
2022/08/23 03:40:53;;;;;;;7.77;5.17;;;;;;;;;;5089067;28;20506;-77
2022/08/23 03:43:22;;;;;;;7.60;5.50;;;;;;;;;;5092210;28;20435;-77
2022/08/23 03:45:49;;;;;;;5.90;5.00;;;;;;;;;;5091855;28;20468;-78
2022/08/23 03:48:17;;;;;;;5.40;4.80;;;;;;;;;;5093174;28;20530;-77
2022/08/23 03:50:44;;;;;;;7.63;5.17;;;;;;;;;;5093821;28;20538;-79
2022/08/23 03:53:12;;;;;;;6.50;4.67;;;;;;;;;;5092433;28;20794;-78
2022/08/23 03:55:39;;;;;;;6.77;4.80;;;;;;;;;;5094910;28;20458;-78
2022/08/23 03:58:06;;;;;;;5.77;4.37;;;;;;;;;;5095014;28;20530;-78
2022/08/23 04:00:35;;;;;;;8.13;5.17;;;;;;;;;;5090465;28;20583;-77
2022/08/23 04:03:02;;;;;;;5.50;4.60;;;;;;;;;;5088519;28;20435;-79
2022/08/23 04:05:29;;;;;;;4.83;4.27;;;;;;;;;;5091436;28;20500;-78
2022/08/23 04:07:57;;;;;;;7.60;5.53;;;;;;;;;;5092324;28;20519;-78
2022/08/23 04:10:24;;;;;;;7.50;4.67;;;;;;;;;;5092517;28;20442;-78
2022/08/23 04:12:53;;;;;;;5.00;4.40;;;;;;;;;;5093603;28;20457;-78
2022/08/23 04:15:20;;;;;;;8.90;4.83;;;;;;;;;;5092592;28;20486;-78
2022/08/23 04:17:49;;;;;;;5.27;4.50;;;;;;;;;;5074114;28;20436;-77
2022/08/23 04:20:17;;;;;;;5.57;4.33;;;;;;;;;;5074464;28;20493;-77
2022/08/23 04:22:44;;;;;;;8.87;5.10;;;;;;;;;;5084311;28;20442;-77
2022/08/23 04:25:12;;;;;;;7.43;5.10;;;;;;;;;;5088014;28;20516;-77
2022/08/23 04:27:40;;;;;;;5.53;4.97;;;;;;;;;;5090957;28;20514;-79
2022/08/23 04:30:08;;;;;;;6.20;4.90;;;;;;;;;;5092200;28;20439;-78
2022/08/23 04:32:35;;;;;;;7.47;5.37;;;;;;;;;;5092574;28;20475;-78
2022/08/23 04:35:04;;;;;;;9.73;5.10;;;;;;;;;;5092585;28;20839;-77
2022/08/23 04:37:34;;;;;;;9.87;5.43;;;;;;;;;;5092057;28;20485;-78
2022/08/23 04:42:42;;;;;;;6.67;5.53;;;;;;;;;;5073734;28;20485;-79
2022/08/23 04:45:10;;;;;;;5.70;5.10;;;;;;;;;;5084449;28;20495;-77
2022/08/23 04:47:40;;;;;;;5.90;4.90;;;;;;;;;;5087728;28;21076;-77
2022/08/23 04:50:09;;;;;;;5.30;4.40;;;;;;;;;;5090724;28;20434;-77
2022/08/23 04:52:36;;;;;;;5.47;4.83;;;;;;;;;;5091802;28;20471;-78
2022/08/23 04:55:04;;;;;;;8.67;4.87;;;;;;;;;;5091883;28;20495;-76
2022/08/23 04:57:31;;;;;;;8.57;5.10;;;;;;;;;;5092429;28;20961;-77
2022/08/23 04:59:59;;;;;;;7.63;5.13;;;;;;;;;;5091195;28;20443;-79
2022/08/23 05:02:26;;;;;;;5.80;4.90;;;;;;;;;;5093856;28;20443;-78
2022/08/23 05:04:53;;;;;;;6.13;4.93;;;;;;;;;;5093902;28;20426;-76
2022/08/23 05:07:22;;;;;;;5.90;4.90;;;;;;;;;;5088939;28;20565;-78
2022/08/23 05:09:52;;;;;;;7.90;5.73;;;;;;;;;;5087582;28;20444;-77
2022/08/23 05:12:19;;;;;;;7.00;4.80;;;;;;;;;;5090890;28;20453;-77
2022/08/23 05:14:46;;;;;;;6.37;5.77;;;;;;;;;;5091263;28;20542;-78
2022/08/23 05:17:14;;;;;;;6.33;5.43;;;;;;;;;;5091531;28;20418;-77
2022/08/23 05:19:41;;;;;;;7.73;5.87;;;;;;;;;;5092201;28;20537;-76
2022/08/23 05:22:08;;;;;;;7.50;6.60;;;;;;;;;;5091195;28;20500;-78
2022/08/23 05:24:36;;;;;;;9.67;6.03;;;;;;;;;;5093685;28;20553;-76
2022/08/23 05:27:04;;;;;;;11.03;6.37;;;;;;;;;;5093821;28;20477;-77
2022/08/23 05:29:31;;;;;;;9.20;6.27;;;;;;;;;;5089283;28;20504;-78
2022/08/23 05:31:58;;;;;;;9.50;6.73;;;;;;;;;;5087443;28;20455;-77
2022/08/23 05:34:25;;;;;;;10.00;6.67;;;;;;;;;;5092481;28;20437;-77
2022/08/23 05:36:53;;;;;;;11.83;7.30;;;;;;;;;;5095504;28;20443;-77
2022/08/23 05:39:20;;;;;;;11.77;7.87;;;;;;;;;;5094586;28;20435;-77
2022/08/23 05:41:48;;;;;;;9.97;7.63;;;;;;;;;;5095997;28;20513;-77
2022/08/23 05:44:16;;;;;;;10.93;7.37;;;;;;;;;;5095212;28;20417;-77
2022/08/23 05:46:44;;;;;;;8.50;7.40;;;;;;;;;;5096576;28;20490;-77
2022/08/23 05:49:11;;;;;;;7.23;6.53;;;;;;;;;;5097730;28;20435;-78
2022/08/23 05:51:38;;;;;;;9.57;6.53;;;;;;;;;;5094327;28;20439;-80
2022/08/23 05:54:07;;;;;;;8.87;6.70;;;;;;;;;;5091130;28;20443;-77
2022/08/23 05:56:35;;;;;;;7.10;5.60;;;;;;;;;;5092844;28;20820;-76
2022/08/23 05:59:05;;;;;;;10.30;6.00;;;;;;;;;;5094094;28;20525;-76
2022/08/23 06:01:33;;;;;;;7.63;5.33;;;;;;;;;;5095089;28;20431;-77
2022/08/23 06:04:01;;;;;;;8.73;6.30;;;;;;;;;;5095241;28;20447;-77
2022/08/23 06:06:28;;;;;;;10.10;5.40;;;;;;;;;;5094056;28;20546;-77
2022/08/23 06:08:56;;;;;;;8.77;5.77;;;;;;;;;;5096084;28;20451;-77
2022/08/23 06:11:25;;;;;;;7.93;5.20;;;;;;;;;;5096952;28;20478;-77
2022/08/23 06:13:53;;;;;;;6.50;4.90;;;;;;;;;;5093673;28;20510;-76
2022/08/23 06:16:23;;;;;;;9.70;5.70;;;;;;;;;;5089233;28;20443;-78
2022/08/23 06:18:50;;;;;;;7.67;5.70;;;;;;;;;;5092177;28;20966;-77
2022/08/23 06:21:18;;;;;;;12.13;5.50;;;;;;;;;;5093366;28;20538;-76
2022/08/23 06:23:46;;;;;;;8.80;5.27;;;;;;;;;;5094536;28;20769;-75
2022/08/23 06:26:15;;;;;;;6.20;5.10;;;;;;;;;;5094727;28;20459;-77
2022/08/23 06:28:43;;;;;;;5.60;4.60;;;;;;;;;;5095240;28;20560;-77
2022/08/23 06:31:10;;;;;;;9.10;5.03;;;;;;;;;;5095667;28;20465;-76
2022/08/23 06:33:41;;;;;;;6.97;4.90;;;;;;;;;;5096800;28;20439;-76
2022/08/23 06:36:09;;;;;;;5.10;3.93;;;;;;;;;;5094048;28;20872;-76
2022/08/23 06:38:36;;;;;;;4.90;4.27;;;;;;;;;;5089083;28;20435;-76
2022/08/23 06:41:05;;;;;;;8.23;4.80;;;;;;;;;;5091689;28;20432;-76
2022/08/23 06:43:33;;;;;;;8.20;4.97;;;;;;;;;;5093103;28;20442;-75
2022/08/23 06:46:07;;;;;;;7.93;4.63;;;;;;;;;;5093917;28;20550;-77
2022/08/23 06:48:35;;;;;;;5.00;4.50;;;;;;;;;;5094412;28;20494;-77
2022/08/23 06:51:03;;;;;;;7.73;4.60;;;;;;;;;;5094586;28;20543;-76
2022/08/23 06:53:30;;;;;;;4.30;3.90;;;;;;;;;;5095338;28;20440;-77
2022/08/23 06:55:58;;;;;;;4.93;3.70;;;;;;;;;;5096399;28;20546;-76
2022/08/23 06:58:25;;;;;;;6.87;4.13;;;;;;;;;;5094764;28;21303;-76
2022/08/23 07:00:52;;;;;;;5.10;4.40;;;;;;;;;;5089886;28;21738;-75
2022/08/23 07:03:19;;;;;;;5.27;4.60;;;;;;;;;;5090716;28;20436;-76
2022/08/23 07:05:46;;;;;;;7.83;4.67;;;;;;;;;;5093933;28;20546;-77
2022/08/23 07:08:15;;;;;;;6.70;4.20;;;;;;;;;;5093812;28;21096;-76
2022/08/23 07:10:42;;;;;;;5.80;4.30;;;;;;;;;;5093916;28;20530;-76
2022/08/23 07:13:09;;;;;;;7.67;4.50;;;;;;;;;;5094351;28;20468;-78
2022/08/23 07:15:37;;;;;;;7.60;4.37;;;;;;;;;;5094121;28;20483;-78
2022/08/23 07:18:04;;;;;;;8.00;4.27;;;;;;;;;;5095739;28;20531;-76
2022/08/23 07:20:31;;;;;;;6.63;4.20;;;;;;;;;;5095160;28;20432;-76
2022/08/23 07:22:58;;;;;;;6.07;4.03;;;;;;;;;;5089703;28;20427;-77
2022/08/23 07:25:27;;;;;;;6.73;4.83;;;;;;;;;;5090110;28;20539;-77
2022/08/23 07:27:54;;;;;;;9.00;4.47;;;;;;;;;;5092656;28;20558;-77
2022/08/23 07:30:22;;;;;;;7.73;3.80;;;;;;;;;;5093111;28;20447;-77
2022/08/23 07:32:49;;;;;;;7.23;4.20;;;;;;;;;;5093272;28;20439;-77
2022/08/23 07:35:16;;;;;;;5.60;4.00;;;;;;;;;;5093577;28;20467;-77
2022/08/23 07:37:43;;;;;;;6.13;3.80;;;;;;;;;;5093721;28;20981;-76
2022/08/23 07:40:11;;;;;;;4.63;3.87;;;;;;;;;;5095491;28;20546;-77
2022/08/23 07:42:40;;;;;;;7.50;4.27;;;;;;;;;;5095358;28;20542;-79
2022/08/23 07:45:07;;;;;;;8.13;4.00;;;;;;;;;;5089729;28;20456;-77
2022/08/23 07:47:35;;;;;;;6.50;3.63;;;;;;;;;;5089096;28;20505;-77
2022/08/23 07:50:02;;;;;;;6.10;3.93;;;;;;;;;;5092311;28;20523;-77
2022/08/23 07:52:29;;;;;;;6.73;3.93;;;;;;;;;;5093083;28;20534;-77
2022/08/23 07:54:56;;;;;;;4.80;4.10;;;;;;;;;;5093409;28;20459;-76
2022/08/23 07:57:24;;;;;;;10.73;4.30;;;;;;;;;;5093309;28;20924;-77
2022/08/23 07:59:53;;;;;;;7.27;3.70;;;;;;;;;;5092981;28;21272;-77
2022/08/23 08:02:21;;;;;;;5.87;4.07;;;;;;;;;;5095449;28;20436;-75
2022/08/23 08:04:48;;;;;;;6.30;3.90;;;;;;;;;;5095283;28;20880;-77
2022/08/23 08:07:15;;;;;;;6.47;4.00;;;;;;;;;;5090325;28;20485;-78
2022/08/23 08:09:43;;;;;;;4.23;3.80;;;;;;;;;;5088742;28;20609;-74
2022/08/23 08:12:10;;;;;;;4.23;3.37;;;;;;;;;;5091497;28;20801;-75
2022/08/23 08:14:38;;;;;;;4.83;4.20;;;;;;;;;;5092556;28;20462;-75
2022/08/23 08:17:07;;;;;;;4.03;3.57;;;;;;;;;;5092231;28;20952;-78
2022/08/23 08:19:34;;;;;;;6.20;3.80;;;;;;;;;;5093080;28;20439;-82
2022/08/23 08:22:01;;;;;;;8.17;4.43;;;;;;;;;;5091994;28;20493;-77
2022/08/23 08:24:28;;;;;;;6.77;3.70;;;;;;;;;;5094392;28;20538;-77
2022/08/23 08:26:56;;;;;;;6.17;3.60;;;;;;;;;;5094337;28;20534;-79
2022/08/23 08:29:23;;;;;;;5.87;3.93;;;;;;;;;;5091389;28;20519;-79
2022/08/23 08:31:50;;;;;;;5.80;4.37;;;;;;;;;;5088259;28;20530;-77
2022/08/23 08:34:18;;;;;;;7.03;3.97;;;;;;;;;;5089638;28;20546;-78
2022/08/23 08:36:47;;;;;;;5.13;3.80;;;;;;;;;;5091942;28;20533;-78
2022/08/23 08:39:17;;;;;;;6.33;3.60;;;;;;;;;;5091768;28;20948;-77
2022/08/23 08:41:48;;;;;;;6.80;4.50;;;;;;;;;;5091081;28;20439;-78
2022/08/23 08:44:22;;;;;;;5.47;4.10;;;;;;;;;;5092011;28;20443;-81
2022/08/23 08:46:51;;;;;;;8.60;4.30;;;;;;;;;;5089961;28;20447;-79
2022/08/23 08:49:24;;;;;;;6.40;4.07;;;;;;;;;;5087801;28;20503;-79
2022/08/23 08:51:53;;;;;;;7.03;3.87;;;;;;;;;;5089876;28;20428;-80
2022/08/23 08:54:23;;;;;;;5.40;3.87;;;;;;;;;;5092117;28;20541;-80
2022/08/23 08:56:52;;;;;;;5.83;4.37;;;;;;;;;;5092213;28;20442;-79
2022/08/23 08:59:21;;;;;;;5.53;3.70;;;;;;;;;;5092190;28;20471;-79
2022/08/23 09:01:49;;;;;;;6.90;4.03;;;;;;;;;;5090642;28;20861;-79
2022/08/23 09:04:16;;;;;;;5.90;3.20;;;;;;;;;;5092885;28;20542;-79
2022/08/23 09:06:51;;;;;;;7.67;4.03;;;;;;;;;;5094261;28;20526;-78
2022/08/23 09:09:26;;;;;;;10.87;4.97;;;;;;;;;;5090102;28;20490;-78
2022/08/23 09:11:58;;;;;;;4.17;3.60;;;;;;;;;;5087843;28;20453;-78
2022/08/23 09:14:36;;;;;;;6.57;4.30;;;;;;;;;;5088109;28;20530;-77
2022/08/23 09:17:05;;;;;;;4.80;4.23;;;;;;;;;;5091796;28;20482;-78
2022/08/23 09:19:34;;;;;;;5.80;4.17;;;;;;;;;;5090417;28;20447;-78
2022/08/23 09:22:05;;;;;;;10.00;4.90;;;;;;;;;;5092089;28;20530;-77
2022/08/23 09:24:36;;;;;;;6.80;3.90;;;;;;;;;;5090185;28;20573;-77
2022/08/23 09:27:03;;;;;;;5.80;3.83;;;;;;;;;;5092887;28;20468;-78
2022/08/23 09:29:32;;;;;;;6.57;4.10;;;;;;;;;;5092451;28;20565;-78
2022/08/23 09:32:01;;;;;;;8.23;4.37;;;;;;;;;;5090783;28;20531;-78
2022/08/23 09:34:40;;;;;;;5.70;3.47;;;;;;;;;;5087064;28;20455;-78
2022/08/23 09:37:11;;;;;;;10.10;4.67;;;;;;;;;;5088443;28;20805;-79
2022/08/23 09:39:41;;;;;;;4.90;4.03;;;;;;;;;;5090109;28;20899;-77
2022/08/23 09:42:10;;;;;;;6.87;3.90;;;;;;;;;;5091489;28;20486;-78
2022/08/23 09:44:38;;;;;;;6.80;4.00;;;;;;;;;;5092165;28;20550;-77
2022/08/23 09:47:07;;;;;;;5.57;4.10;;;;;;;;;;5091252;28;20443;-78
2022/08/23 09:49:34;;;;;;;7.03;4.20;;;;;;;;;;5091953;28;20673;-85
2022/08/23 09:52:02;;;;;;;7.23;3.60;;;;;;;;;;5093516;28;20435;-82
2022/08/23 09:54:33;;;;;;;8.10;4.77;;;;;;;;;;5090325;28;20570;-81
2022/08/23 09:57:01;;;;;;;6.00;3.57;;;;;;;;;;5087368;28;20518;-83
2022/08/23 09:59:34;;;;;;;7.70;4.10;;;;;;;;;;5088053;28;20981;-79
2022/08/23 10:02:02;;;;;;;7.87;3.57;;;;;;;;;;5089856;28;20450;-77
2022/08/23 10:04:39;;;;;;;5.97;3.77;;;;;;;;;;5091286;28;20439;-77
2022/08/23 10:07:21;;;;;;;7.93;3.80;;;;;;;;;;5090721;28;20787;-78
2022/08/23 10:09:50;;;;;;;10.80;3.67;;;;;;;;;;5090615;28;20975;-77
2022/08/23 10:12:17;;;;;;;8.03;3.23;;;;;;;;;;5093234;28;20518;-77
2022/08/23 10:14:44;;;;;;;6.67;3.50;;;;;;;;;;5093273;28;20541;-78
2022/08/23 10:17:16;;;;;;;5.97;3.10;;;;;;;;;;5089352;28;20527;-78
2022/08/23 10:19:50;;;;;;;5.17;3.30;;;;;;;;;;5088085;28;20488;-78
2022/08/23 10:22:20;;;;;;;9.03;3.70;;;;;;;;;;5093928;28;20446;-78
2022/08/23 10:24:49;;;;;;;5.20;3.47;;;;;;;;;;5093411;28;20467;-78
2022/08/23 10:30:04;;;;;;;5.70;3.33;;;;;;;;;;5093234;28;20431;-78
2022/08/23 10:32:36;;;;;;;8.77;3.33;;;;;;;;;;5094614;28;20443;-77
2022/08/23 10:35:20;;;;;;;7.67;3.20;;;;;;;;;;5096418;28;20467;-78
2022/08/23 10:37:56;;;;;;;5.43;3.10;;;;;;;;;;5096810;28;20485;-77
2022/08/23 10:40:27;;;;;;;5.23;3.37;;;;;;;;;;5091270;28;20461;-77
2022/08/23 10:43:00;;;;;;;7.27;3.17;;;;;;;;;;5088980;28;20912;-76
2022/08/23 10:45:30;;;;;;;4.77;3.23;;;;;;;;;;5093657;28;21054;-77
2022/08/23 10:48:04;;;;;;;6.60;3.63;;;;;;;;;;5092702;28;20543;-77
2022/08/23 10:50:39;;;;;;;4.27;3.13;;;;;;;;;;5094098;28;20488;-76
2022/08/23 10:53:09;;;;;;;5.20;3.20;;;;;;;;;;5094605;28;20441;-77
2022/08/23 10:55:53;;;;;;;6.63;3.50;;;;;;;;;;5093160;28;20562;-77
2022/08/23 10:58:24;;;;;;;6.30;3.40;;;;;;;;;;5096395;28;20440;-77
2022/08/23 11:00:52;;;;;;;7.30;3.60;;;;;;;;;;5095103;28;20537;-79
2022/08/23 11:03:24;;;;;;;5.90;3.40;;;;;;;;;;5090508;28;20436;-78
2022/08/23 11:06:06;;;;;;;3.57;2.80;;;;;;;;;;5089928;28;20542;-79
2022/08/23 11:08:35;;;;;;;3.50;2.90;;;;;;;;;;5092125;28;20562;-79
2022/08/23 11:11:03;;;;;;;3.73;2.63;;;;;;;;;;5093532;28;20446;-80
2022/08/23 11:13:33;;;;;;;3.37;2.40;;;;;;;;;;5093695;28;20969;-79
2022/08/23 11:16:02;;;;;;;4.50;2.70;;;;;;;;;;5094497;28;20789;-81
2022/08/23 11:18:38;;;;;;;5.87;3.17;;;;;;;;;;5094194;28;20537;-79
2022/08/23 11:21:07;;;;;;;3.00;2.67;;;;;;;;;;5096125;28;20876;-81
2022/08/23 11:23:40;;;;;;;4.93;2.80;;;;;;;;;;5094778;28;20493;-79
2022/08/23 11:26:08;;;;;;;6.53;2.70;;;;;;;;;;5089127;28;20956;-81
2022/08/23 11:28:41;;;;;;;5.80;2.90;;;;;;;;;;5090145;28;20490;-80
2022/08/23 11:31:23;;;;;;;4.30;3.20;;;;;;;;;;5090444;28;20439;-79
2022/08/23 11:33:54;;;;;;;6.30;3.30;;;;;;;;;;5092104;28;21004;-79
2022/08/23 11:36:22;;;;;;;5.00;3.10;;;;;;;;;;5093562;28;20503;-78
2022/08/23 11:39:04;;;;;;;5.87;2.90;;;;;;;;;;5092804;28;20439;-79
2022/08/23 11:41:32;;;;;;;5.83;2.90;;;;;;;;;;5092897;28;20459;-79
2022/08/23 11:44:14;;;;;;;4.67;2.87;;;;;;;;;;5095745;28;20530;-79
2022/08/23 11:46:56;;;;;;;4.37;3.00;;;;;;;;;;5093807;28;20522;-79
2022/08/23 11:49:31;;;;;;;5.77;2.80;;;;;;;;;;5087726;28;20578;-80
2022/08/23 11:52:03;;;;;;;5.03;2.80;;;;;;;;;;5090069;28;20435;-78
2022/08/23 11:54:39;;;;;;;5.67;3.00;;;;;;;;;;5092527;28;20542;-79
2022/08/23 11:57:16;;;;;;;4.60;3.17;;;;;;;;;;5092564;28;20470;-79
2022/08/23 12:00:03;;;;;;;4.50;3.27;;;;;;;;;;5093099;28;20530;-80
2022/08/23 12:02:36;;;;;;;4.13;2.60;;;;;;;;;;5092949;28;20792;-80
2022/08/23 12:05:07;;;;;;;4.03;2.10;;;;;;;;;;5090281;28;20550;-79
2022/08/23 12:07:44;;;;;;;4.23;2.67;;;;;;;;;;5088873;28;20428;-79
2022/08/23 12:10:12;;;;;;;4.43;2.60;;;;;;;;;;5093197;28;20549;-79
2022/08/23 12:12:41;;;;;;;3.87;3.30;;;;;;;;;;5092658;28;20965;-79
2022/08/23 12:15:09;;;;;;;6.00;2.70;;;;;;;;;;5093110;28;20456;-81
2022/08/23 12:17:52;;;;;;;4.27;2.73;;;;;;;;;;5092453;28;20482;-78
2022/08/23 12:20:26;;;;;;;3.80;2.40;;;;;;;;;;5091736;28;20524;-80
2022/08/23 12:22:57;;;;;;;3.70;2.40;;;;;;;;;;5095124;28;20504;-78
2022/08/23 12:25:24;;;;;;;4.30;2.83;;;;;;;;;;5094802;28;20501;-80
2022/08/23 12:27:56;;;;;;;3.90;3.07;;;;;;;;;;5089484;28;20538;-79
2022/08/23 12:30:25;;;;;;;6.93;3.13;;;;;;;;;;5087863;28;20574;-79
2022/08/23 12:32:56;;;;;;;5.13;3.43;;;;;;;;;;5091511;28;20464;-80
2022/08/23 12:35:30;;;;;;;5.10;3.30;;;;;;;;;;5092067;28;20475;-79
2022/08/23 12:38:02;;;;;;;9.07;3.90;;;;;;;;;;5092172;28;20775;-79
2022/08/23 12:40:31;;;;;;;4.63;3.00;;;;;;;;;;5092570;28;20503;-80
2022/08/23 12:43:04;;;;;;;6.80;3.33;;;;;;;;;;5091843;28;20438;-81
2022/08/23 12:45:37;;;;;;;3.10;2.53;;;;;;;;;;5093106;28;20498;-78
2022/08/23 12:48:07;;;;;;;5.70;3.57;;;;;;;;;;5093318;28;20519;-80
2022/08/23 12:50:37;;;;;;;3.00;2.43;;;;;;;;;;5087988;28;20613;-78
2022/08/23 12:53:07;;;;;;;5.57;3.00;;;;;;;;;;5086799;28;20928;-79
2022/08/23 12:55:36;;;;;;;5.70;3.43;;;;;;;;;;5089825;28;20900;-80
2022/08/23 12:58:04;;;;;;;5.33;3.30;;;;;;;;;;5090602;28;20964;-78
2022/08/23 13:00:33;;;;;;;3.20;2.57;;;;;;;;;;5091978;28;20439;-80
2022/08/23 13:03:02;;;;;;;5.33;2.50;;;;;;;;;;5092292;28;20442;-80
2022/08/23 13:05:34;;;;;;;5.80;3.20;;;;;;;;;;5091943;28;20507;-79
2022/08/23 13:08:04;;;;;;;3.30;2.67;;;;;;;;;;5093826;28;20447;-79
2022/08/23 13:10:32;;;;;;;4.63;2.93;;;;;;;;;;5093443;28;20489;-78
2022/08/23 13:13:00;;;;;;;5.30;3.50;;;;;;;;;;5087706;28;20428;-80
2022/08/23 13:15:42;;;;;;;4.50;3.00;;;;;;;;;;5088205;28;20447;-80
2022/08/23 13:18:09;;;;;;;4.47;3.40;;;;;;;;;;5089942;28;20876;-80
2022/08/23 13:20:39;;;;;;;4.03;2.90;;;;;;;;;;5091188;28;20497;-79
2022/08/23 13:23:09;;;;;;;2.97;2.60;;;;;;;;;;5091678;28;20462;-80
2022/08/23 13:25:38;;;;;;;7.00;3.00;;;;;;;;;;5090761;28;20550;-80
2022/08/23 13:28:07;;;;;;;4.77;2.97;;;;;;;;;;5091973;28;20475;-81
2022/08/23 13:30:35;;;;;;;4.07;2.70;;;;;;;;;;5092697;28;20581;-79
2022/08/23 13:33:17;;;;;;;4.93;3.13;;;;;;;;;;5091628;28;20518;-81
2022/08/23 13:35:44;;;;;;;3.03;2.60;;;;;;;;;;5086062;28;20896;-79
2022/08/23 13:38:18;;;;;;;2.40;2.20;;;;;;;;;;5086986;28;20514;-79
2022/08/23 13:40:48;;;;;;;3.17;2.47;;;;;;;;;;5091507;28;20538;-80
2022/08/23 13:43:20;;;;;;;5.00;3.17;;;;;;;;;;5090983;28;20447;-78
2022/08/23 13:45:47;;;;;;;5.70;2.80;;;;;;;;;;5091171;28;20551;-80
2022/08/23 13:48:16;;;;;;;2.80;2.47;;;;;;;;;;5090776;28;20497;-79
2022/08/23 13:50:44;;;;;;;6.20;2.97;;;;;;;;;;5092234;28;20564;-80
2022/08/23 13:53:11;;;;;;;3.93;2.67;;;;;;;;;;5093576;28;20443;-78
2022/08/23 13:55:43;;;;;;;3.37;2.47;;;;;;;;;;5095118;28;20887;-81
2022/08/23 13:58:11;;;;;;;5.60;2.93;;;;;;;;;;5091107;28;20438;-79
2022/08/23 14:00:38;;;;;;;4.97;3.10;;;;;;;;;;5090774;28;20937;-79
2022/08/23 14:03:06;;;;;;;6.70;2.50;;;;;;;;;;5095140;28;20774;-80
2022/08/23 14:05:34;;;;;;;3.80;2.50;;;;;;;;;;5095136;28;20487;-79
2022/08/23 14:08:01;;;;;;;2.97;2.23;;;;;;;;;;5094009;28;20530;-79
2022/08/23 14:10:28;;;;;;;3.47;2.60;;;;;;;;;;5095813;28;20805;-79
2022/08/23 14:12:58;;;;;;;4.13;2.50;;;;;;;;;;5095332;28;20999;-79
2022/08/23 14:15:25;;;;;;;5.03;2.90;;;;;;;;;;5097074;28;20546;-79
2022/08/23 14:17:54;;;;;;;4.23;2.63;;;;;;;;;;5096747;28;20853;-79
2022/08/23 14:20:22;;;;;;;3.00;2.33;;;;;;;;;;5090514;28;20800;-79
2022/08/23 14:22:49;;;;;;;4.83;2.33;;;;;;;;;;5091655;28;20511;-79
2022/08/23 14:25:17;;;;;;;3.50;2.33;;;;;;;;;;5093990;28;20968;-80
2022/08/23 14:27:45;;;;;;;4.23;2.30;;;;;;;;;;5094566;28;20526;-79
2022/08/23 14:30:22;;;;;;;4.30;2.50;;;;;;;;;;5089437;28;20495;-80
2022/08/23 14:32:49;;;;;;;3.10;2.23;;;;;;;;;;5090873;28;20772;-79
2022/08/23 14:35:16;;;;;;;3.33;2.20;;;;;;;;;;5094498;28;20578;-80
2022/08/23 14:37:43;;;;;;;4.73;2.57;;;;;;;;;;5096556;28;20538;-79
2022/08/23 14:40:11;;;;;;;3.80;2.40;;;;;;;;;;5095892;28;20443;-79
2022/08/23 14:42:38;;;;;;;4.10;2.33;;;;;;;;;;5090202;28;20442;-80
2022/08/23 14:45:06;;;;;;;2.87;2.13;;;;;;;;;;5091300;28;20947;-80
2022/08/23 14:47:35;;;;;;;4.93;2.53;;;;;;;;;;5094098;28;20436;-80
2022/08/23 14:50:02;;;;;;;3.23;2.43;;;;;;;;;;5093894;28;20930;-80
2022/08/23 14:52:30;;;;;;;5.70;2.80;;;;;;;;;;5093332;28;20496;-79
2022/08/23 14:54:57;;;;;;;3.97;2.70;;;;;;;;;;5094620;28;20455;-78
2022/08/23 14:57:24;;;;;;;5.20;2.40;;;;;;;;;;5094761;28;21008;-79
2022/08/23 14:59:51;;;;;;;4.10;2.87;;;;;;;;;;5096227;28;20466;-80
2022/08/23 15:02:20;;;;;;;6.43;3.03;;;;;;;;;;5095606;28;20431;-80